METAR Luftfahrt Wetterdaten     LSZH Zürich Airport
Temperatur
16°C Temperatur
16°C Taupunkt
100% Feuchtigkeit



Wind
3 KM/h
2 MPS
1 M/S
2 KTS



330°
NNW
Aktuelle Wetterlage

Klar Klar
Luftdruck 1019.98 (hPa) - 30.12 (inHg)
Sichtweite 6 (Meile) - 9.7 (Km)
Flughafen
Flughafen Code LSZH

Position : Zürich Airport
Entfernung: 60 (Km)

Metar:
LSZH 190250Z AUTO 33002KT CAVOK 16/16 Q1020 NOSIG

Zeit: 19-07-2024 04:50 CEST